createdAt,value
2023-07-05T00:01:44.685Z,81
2023-07-05T00:06:27.990Z,81
2023-07-05T00:15:54.222Z,81.5
2023-07-05T00:20:37.545Z,81.5
2023-07-05T00:25:20.601Z,81
2023-07-05T00:30:03.928Z,81.5
2023-07-05T00:39:30.176Z,82
2023-07-05T00:44:13.523Z,81.5
2023-07-05T00:53:39.905Z,82
2023-07-05T00:58:23.273Z,81.5
2023-07-05T01:03:06.494Z,83
2023-07-05T01:12:33.059Z,82.5
2023-07-05T01:17:16.258Z,81
2023-07-05T01:21:59.161Z,81
2023-07-05T01:31:25.698Z,80.5
2023-07-05T01:36:09.050Z,80
2023-07-05T01:50:18.733Z,77
2023-07-05T01:55:02.010Z,76
2023-07-05T01:59:45.313Z,72
2023-07-05T02:04:28.550Z,71.5
2023-07-05T02:09:11.757Z,72
2023-07-05T02:13:55.079Z,73.5
2023-07-05T02:23:21.627Z,77.5
2023-07-05T02:28:04.911Z,85
2023-07-05T02:32:48.096Z,88
2023-07-05T02:37:31.400Z,90.5
2023-07-05T02:42:14.610Z,93
2023-07-05T02:46:57.519Z,96
2023-07-05T02:51:40.801Z,98
2023-07-05T02:56:24.037Z,96
2023-07-05T03:01:07.255Z,96
2023-07-05T03:05:50.539Z,96
2023-07-05T03:10:33.850Z,95
2023-07-05T03:15:17.134Z,97.5
2023-07-05T03:24:43.575Z,99.5
2023-07-05T03:29:27.047Z,99.5
2023-07-05T03:34:10.273Z,99.5
2023-07-05T03:38:53.398Z,99.5
2023-07-05T03:43:36.753Z,99.5
2023-07-05T03:48:19.914Z,99.5
2023-07-05T03:53:03.207Z,99.5
2023-07-05T03:57:46.419Z,99.5
2023-07-05T04:02:29.731Z,99.5
2023-07-05T04:07:12.180Z,99.5
2023-07-05T04:11:54.831Z,99.5
2023-07-05T04:16:37.606Z,99.5
2023-07-05T04:21:20.345Z,99
2023-07-05T04:26:03.131Z,97.5
2023-07-05T04:30:45.062Z,93.5
2023-07-05T04:35:27.757Z,92.5
2023-07-05T04:40:10.483Z,91.5
2023-07-05T04:44:53.230Z,91.5
2023-07-05T04:49:36.069Z,92.5
2023-07-05T04:54:18.724Z,91.5
2023-07-05T04:59:01.487Z,91
2023-07-05T05:03:44.261Z,88.5
2023-07-05T05:13:09.620Z,84.5
2023-07-05T05:17:52.437Z,84
2023-07-05T05:22:35.088Z,84.5
2023-07-05T05:27:17.802Z,85.5
2023-07-05T05:32:00.574Z,84
2023-07-05T05:36:43.288Z,85
2023-07-05T05:41:26.069Z,85
2023-07-05T05:46:08.844Z,85
2023-07-05T05:50:51.403Z,87.5
2023-07-05T05:55:34.209Z,92
2023-07-05T06:04:59.641Z,99.5
2023-07-05T06:09:41.631Z,99.5
2023-07-05T06:14:24.334Z,99.5
2023-07-05T06:19:07.162Z,99.5
2023-07-05T06:23:49.933Z,99.5
2023-07-05T06:28:32.630Z,99.5
2023-07-05T06:33:15.262Z,99.5
2023-07-05T06:42:40.845Z,99.5
2023-07-05T06:47:23.479Z,99.5
2023-07-05T06:52:06.192Z,99.5
2023-07-05T06:56:48.986Z,99.5
2023-07-05T07:01:31.870Z,99.5
2023-07-05T07:06:14.483Z,99.5
2023-07-05T07:10:57.114Z,99.5
2023-07-05T07:15:39.966Z,99.5
2023-07-05T07:20:22.638Z,99.5
2023-07-05T07:25:05.432Z,99.5
2023-07-05T07:29:48.124Z,99.5
2023-07-05T07:34:30.937Z,98.5
2023-07-05T07:39:13.570Z,98
2023-07-05T07:43:56.311Z,98
2023-07-05T07:48:38.994Z,98
2023-07-05T07:53:21.819Z,92.5
2023-07-05T07:58:04.474Z,90.5
2023-07-05T08:02:47.173Z,91
2023-07-05T08:07:29.892Z,86.5
2023-07-05T08:12:12.847Z,86
2023-07-05T08:16:55.584Z,86.5
2023-07-05T08:21:38.123Z,88.5
2023-07-05T08:26:20.893Z,87
2023-07-05T08:31:03.756Z,87.5
2023-07-05T08:35:46.323Z,86.5
2023-07-05T08:45:11.857Z,81.5
2023-07-05T08:49:54.692Z,80
2023-07-05T08:54:37.300Z,77.5
2023-07-05T09:04:03.322Z,77.5
2023-07-05T09:08:46.467Z,75
2023-07-05T09:13:29.869Z,74
2023-07-05T09:18:13.074Z,73
2023-07-05T09:32:22.795Z,89.5
2023-07-05T09:37:05.691Z,94.5
2023-07-05T09:41:48.897Z,99.5
2023-07-05T09:46:32.318Z,99.5
2023-07-05T09:51:15.419Z,99.5
2023-07-05T09:55:58.722Z,99.5
2023-07-05T10:00:41.731Z,99.5
2023-07-05T10:05:24.935Z,99.5
2023-07-05T10:10:08.258Z,99.5
2023-07-05T10:19:34.797Z,99.5
2023-07-05T10:29:01.328Z,99.5
2023-07-05T10:33:44.580Z,99.5
2023-07-05T10:43:11.150Z,99.5
2023-07-05T10:52:37.612Z,99.5
2023-07-05T10:57:20.510Z,99.5
2023-07-05T11:02:03.714Z,99.5
2023-07-05T11:06:47.207Z,99.5
2023-07-05T11:11:30.449Z,99.5
2023-07-05T11:16:13.746Z,94.5
2023-07-05T11:20:56.996Z,86
2023-07-05T11:25:40.230Z,87
2023-07-05T11:30:23.354Z,85
2023-07-05T11:35:06.734Z,80.5
2023-07-05T11:39:50.113Z,80.5
2023-07-05T11:44:33.358Z,79
2023-07-05T11:49:16.586Z,76
2023-07-05T11:53:59.855Z,72.5
2023-07-05T11:58:42.085Z,72
2023-07-05T12:03:25.000Z,72.5
2023-07-05T12:08:07.658Z,67
2023-07-05T12:12:50.479Z,62.5
2023-07-05T12:22:15.887Z,59
2023-07-05T12:26:58.609Z,55.5
2023-07-05T12:31:41.304Z,56
2023-07-05T12:36:24.193Z,57.5
2023-07-05T12:41:06.126Z,60
2023-07-05T12:45:48.839Z,56
2023-07-05T12:55:14.184Z,47
2023-07-05T12:59:57.005Z,46
2023-07-05T13:04:39.770Z,47
2023-07-05T13:09:22.479Z,43
2023-07-05T13:14:04.980Z,42.5
2023-07-05T13:18:48.014Z,42
2023-07-05T13:23:30.790Z,41
2023-07-05T13:32:56.155Z,38
2023-07-05T13:37:38.921Z,35.5
2023-07-05T13:42:21.604Z,36.5
2023-07-05T13:51:46.271Z,38
2023-07-05T13:56:29.159Z,37
2023-07-05T14:05:54.548Z,34.5
2023-07-05T14:10:37.337Z,34.5
2023-07-05T14:15:20.066Z,34.5
2023-07-05T14:20:02.756Z,34.5
2023-07-05T14:24:45.278Z,33.5
2023-07-05T14:34:10.903Z,31.5
2023-07-05T14:43:36.338Z,32.5
2023-07-05T14:48:19.092Z,29.5
2023-07-05T14:53:01.719Z,30
2023-07-05T15:02:27.335Z,28
2023-07-05T15:07:09.997Z,29
2023-07-05T15:11:52.818Z,27
2023-07-05T15:16:35.508Z,28
2023-07-05T15:21:18.307Z,28
2023-07-05T15:26:00.065Z,28
2023-07-05T15:35:25.829Z,29.5
2023-07-05T15:40:08.283Z,30
2023-07-05T15:44:51.007Z,29.5
2023-07-05T15:58:59.432Z,31
2023-07-05T16:03:42.063Z,30.5
2023-07-05T16:13:07.425Z,29
2023-07-05T16:17:50.275Z,30
2023-07-05T16:22:33.105Z,31
2023-07-05T16:27:15.763Z,30.5
2023-07-05T16:31:58.521Z,31
2023-07-05T16:36:41.228Z,33.5
2023-07-05T16:46:06.711Z,33
2023-07-05T16:55:31.985Z,34.5
2023-07-05T17:04:57.493Z,35
2023-07-05T17:09:40.217Z,36.5
2023-07-05T17:14:22.934Z,37.5
2023-07-05T17:19:05.000Z,39.5
2023-07-05T17:28:30.529Z,38.5
2023-07-05T17:42:38.675Z,40
2023-07-05T17:47:21.406Z,40
2023-07-05T17:52:04.282Z,42.5
2023-07-05T17:56:46.965Z,42.5
2023-07-05T18:06:12.451Z,44
2023-07-05T18:15:37.878Z,45.5
2023-07-05T18:25:03.405Z,45
2023-07-05T18:34:28.846Z,44.5
2023-07-05T18:39:11.587Z,44
2023-07-05T18:43:54.300Z,44.5
2023-07-05T18:48:37.051Z,47
2023-07-05T18:53:19.714Z,48
2023-07-05T18:58:02.346Z,49.5
2023-07-05T19:07:27.976Z,50
2023-07-05T19:12:10.692Z,51
2023-07-05T19:16:53.413Z,52
2023-07-05T19:31:01.404Z,53.5
2023-07-05T19:35:44.206Z,54.5
2023-07-05T19:40:26.900Z,55.5
2023-07-05T19:45:09.755Z,55.5
2023-07-05T19:49:52.324Z,55.5
2023-07-05T19:54:35.220Z,56.5
2023-07-05T19:59:17.846Z,57.5
2023-07-05T20:04:00.601Z,57
2023-07-05T20:13:25.240Z,58.5
2023-07-05T20:18:08.046Z,58.5
2023-07-05T20:27:33.510Z,58.5
2023-07-05T20:36:59.073Z,59.5
2023-07-05T20:41:41.669Z,60
2023-07-05T20:46:24.384Z,60.5
2023-07-05T20:51:07.085Z,61
2023-07-05T21:00:32.613Z,62.5
2023-07-05T21:09:58.162Z,62
2023-07-05T21:14:40.810Z,62.5
2023-07-05T21:24:06.257Z,64.5
2023-07-05T21:28:49.124Z,64
2023-07-05T21:33:31.880Z,65
2023-07-05T21:38:14.502Z,65
2023-07-05T21:52:22.804Z,68
2023-07-05T21:57:05.474Z,69
2023-07-05T22:01:48.065Z,69.5
2023-07-05T22:06:30.890Z,70.5
2023-07-05T22:11:13.696Z,71.5
2023-07-05T22:20:38.996Z,73.5
2023-07-05T22:25:21.711Z,75
2023-07-05T22:30:03.700Z,75.5
2023-07-05T22:34:46.510Z,76.5
2023-07-05T22:39:29.216Z,77.5
2023-07-05T22:44:12.073Z,78
2023-07-05T22:48:54.654Z,76.5
2023-07-05T22:58:20.127Z,77.5
2023-07-05T23:07:45.638Z,79
2023-07-05T23:17:11.057Z,80.5
2023-07-05T23:21:53.906Z,81
2023-07-05T23:36:02.008Z,84.5
2023-07-05T23:40:44.079Z,84.5
2023-07-05T23:45:26.687Z,84.5
2023-07-05T23:59:34.998Z,84.5
